sensor_id;sensor_type;location;lat;lon;timestamp;pressure;altitude;pressure_sealevel;temperature;humidity
16016;BME280;8112;53.592;10.184;2024-02-21T00:04:48;101486.41;;;8.58;100.00
16016;BME280;8112;53.592;10.184;2024-02-21T00:09:52;101489.91;;;8.59;100.00
16016;BME280;8112;53.592;10.184;2024-02-21T00:14:54;101481.97;;;8.60;100.00
16016;BME280;8112;53.592;10.184;2024-02-21T00:19:56;101486.09;;;8.44;100.00
16016;BME280;8112;53.592;10.184;2024-02-21T00:24:59;101479.56;;;8.54;100.00
16016;BME280;8112;53.592;10.184;2024-02-21T00:30:01;101462.53;;;8.40;100.00
16016;BME280;8112;53.592;10.184;2024-02-21T00:35:03;101459.31;;;8.34;100.00
16016;BME280;8112;53.592;10.184;2024-02-21T00:40:09;101450.44;;;8.36;100.00
16016;BME280;8112;53.592;10.184;2024-02-21T00:45:11;101447.34;;;8.49;100.00
16016;BME280;8112;53.592;10.184;2024-02-21T00:50:13;101437.19;;;8.39;100.00
16016;BME280;8112;53.592;10.184;2024-02-21T00:55:17;101441.72;;;8.36;100.00
16016;BME280;8112;53.592;10.184;2024-02-21T01:00:20;101438.09;;;8.38;100.00
16016;BME280;8112;53.592;10.184;2024-02-21T01:05:22;101437.88;;;8.45;100.00
16016;BME280;8112;53.592;10.184;2024-02-21T01:10:25;101433.41;;;8.47;100.00
16016;BME280;8112;53.592;10.184;2024-02-21T01:15:27;101426.47;;;8.46;100.00
16016;BME280;8112;53.592;10.184;2024-02-21T01:20:29;101406.59;;;8.38;100.00
16016;BME280;8112;53.592;10.184;2024-02-21T01:25:32;101416.09;;;8.43;100.00
16016;BME280;8112;53.592;10.184;2024-02-21T01:30:34;101412.25;;;8.51;100.00
16016;BME280;8112;53.592;10.184;2024-02-21T01:35:36;101413.44;;;8.43;100.00
16016;BME280;8112;53.592;10.184;2024-02-21T01:40:40;101408.19;;;8.43;100.00
16016;BME280;8112;53.592;10.184;2024-02-21T01:45:41;101399.56;;;8.39;100.00
16016;BME280;8112;53.592;10.184;2024-02-21T01:50:44;101389.25;;;8.34;100.00
16016;BME280;8112;53.592;10.184;2024-02-21T01:55:48;101378.50;;;8.18;100.00
16016;BME280;8112;53.592;10.184;2024-02-21T02:00:50;101379.63;;;8.11;100.00
16016;BME280;8112;53.592;10.184;2024-02-21T02:05:52;101377.88;;;8.11;100.00
16016;BME280;8112;53.592;10.184;2024-02-21T02:10:56;101372.78;;;8.07;100.00
16016;BME280;8112;53.592;10.184;2024-02-21T02:15:57;101364.88;;;8.08;100.00
16016;BME280;8112;53.592;10.184;2024-02-21T02:20:59;101366.38;;;8.14;100.00
16016;BME280;8112;53.592;10.184;2024-02-21T02:26:06;101332.66;;;8.03;100.00
16016;BME280;8112;53.592;10.184;2024-02-21T02:31:08;101311.66;;;8.03;100.00
16016;BME280;8112;53.592;10.184;2024-02-21T02:36:10;101274.13;;;8.01;100.00
16016;BME280;8112;53.592;10.184;2024-02-21T02:41:13;101240.69;;;8.06;100.00
16016;BME280;8112;53.592;10.184;2024-02-21T02:46:15;101269.19;;;8.16;100.00
16016;BME280;8112;53.592;10.184;2024-02-21T02:51:17;101324.88;;;8.24;100.00
16016;BME280;8112;53.592;10.184;2024-02-21T02:56:21;101324.47;;;8.35;100.00
16016;BME280;8112;53.592;10.184;2024-02-21T03:01:23;101294.66;;;8.36;100.00
16016;BME280;8112;53.592;10.184;2024-02-21T03:06:25;101323.16;;;8.45;100.00
16016;BME280;8112;53.592;10.184;2024-02-21T03:11:31;101328.53;;;8.42;100.00
16016;BME280;8112;53.592;10.184;2024-02-21T03:16:33;101327.66;;;8.41;100.00
16016;BME280;8112;53.592;10.184;2024-02-21T03:21:35;101339.03;;;8.42;100.00
16016;BME280;8112;53.592;10.184;2024-02-21T03:26:39;101336.00;;;8.53;100.00
16016;BME280;8112;53.592;10.184;2024-02-21T03:31:42;101325.72;;;8.47;100.00
16016;BME280;8112;53.592;10.184;2024-02-21T03:36:44;101329.03;;;8.52;100.00
16016;BME280;8112;53.592;10.184;2024-02-21T03:41:48;101343.88;;;8.53;100.00
16016;BME280;8112;53.592;10.184;2024-02-21T03:46:51;101342.97;;;8.54;100.00
16016;BME280;8112;53.592;10.184;2024-02-21T03:51:59;101328.25;;;8.50;100.00
16016;BME280;8112;53.592;10.184;2024-02-21T03:57:02;101328.69;;;8.61;100.00
16016;BME280;8112;53.592;10.184;2024-02-21T04:02:04;101316.19;;;8.66;100.00
16016;BME280;8112;53.592;10.184;2024-02-21T04:07:08;101303.78;;;8.48;100.00
16016;BME280;8112;53.592;10.184;2024-02-21T04:12:12;101301.00;;;8.30;100.00
16016;BME280;8112;53.592;10.184;2024-02-21T04:17:14;101297.63;;;8.26;100.00
16016;BME280;8112;53.592;10.184;2024-02-21T04:22:16;101289.09;;;8.21;100.00
16016;BME280;8112;53.592;10.184;2024-02-21T04:27:19;101287.63;;;8.14;100.00
16016;BME280;8112;53.592;10.184;2024-02-21T04:32:21;101275.19;;;8.19;100.00
16016;BME280;8112;53.592;10.184;2024-02-21T04:37:23;101286.38;;;8.23;100.00
16016;BME280;8112;53.592;10.184;2024-02-21T04:42:26;101285.84;;;8.15;100.00
16016;BME280;8112;53.592;10.184;2024-02-21T04:47:29;101286.38;;;8.23;100.00
16016;BME280;8112;53.592;10.184;2024-02-21T04:52:30;101286.78;;;8.13;100.00
16016;BME280;8112;53.592;10.184;2024-02-21T04:57:34;101290.97;;;8.18;100.00
16016;BME280;8112;53.592;10.184;2024-02-21T05:02:36;101290.19;;;8.16;100.00
16016;BME280;8112;53.592;10.184;2024-02-21T05:07:40;101297.41;;;8.10;100.00
16016;BME280;8112;53.592;10.184;2024-02-21T05:12:44;101298.19;;;8.12;100.00
16016;BME280;8112;53.592;10.184;2024-02-21T05:17:46;101301.91;;;8.07;100.00
16016;BME280;8112;53.592;10.184;2024-02-21T05:22:49;101294.34;;;7.99;100.00
16016;BME280;8112;53.592;10.184;2024-02-21T05:27:52;101298.00;;;8.17;100.00
16016;BME280;8112;53.592;10.184;2024-02-21T05:32:56;101304.53;;;8.07;100.00
16016;BME280;8112;53.592;10.184;2024-02-21T05:37:58;101303.00;;;8.01;100.00
16016;BME280;8112;53.592;10.184;2024-02-21T05:43:02;101303.75;;;8.05;100.00
16016;BME280;8112;53.592;10.184;2024-02-21T05:48:05;101303.50;;;8.11;100.00
16016;BME280;8112;53.592;10.184;2024-02-21T05:53:07;101306.31;;;8.06;100.00
16016;BME280;8112;53.592;10.184;2024-02-21T05:58:12;101315.13;;;8.05;100.00
16016;BME280;8112;53.592;10.184;2024-02-21T06:03:14;101309.97;;;8.02;100.00
16016;BME280;8112;53.592;10.184;2024-02-21T06:08:15;101328.28;;;8.04;100.00
16016;BME280;8112;53.592;10.184;2024-02-21T06:13:19;101330.97;;;8.02;100.00
16016;BME280;8112;53.592;10.184;2024-02-21T06:18:21;101336.78;;;8.10;100.00
16016;BME280;8112;53.592;10.184;2024-02-21T06:23:26;101349.13;;;8.08;100.00
16016;BME280;8112;53.592;10.184;2024-02-21T06:28:30;101343.16;;;8.03;100.00
16016;BME280;8112;53.592;10.184;2024-02-21T06:33:31;101344.00;;;8.05;100.00
16016;BME280;8112;53.592;10.184;2024-02-21T06:38:33;101346.53;;;8.07;100.00
16016;BME280;8112;53.592;10.184;2024-02-21T06:43:37;101362.88;;;8.15;100.00
16016;BME280;8112;53.592;10.184;2024-02-21T06:48:38;101355.16;;;8.10;100.00
16016;BME280;8112;53.592;10.184;2024-02-21T06:53:42;101350.69;;;8.12;100.00
16016;BME280;8112;53.592;10.184;2024-02-21T06:58:45;101372.50;;;8.15;100.00
16016;BME280;8112;53.592;10.184;2024-02-21T07:03:49;101363.69;;;8.16;100.00
16016;BME280;8112;53.592;10.184;2024-02-21T07:08:50;101361.81;;;8.19;100.00
16016;BME280;8112;53.592;10.184;2024-02-21T07:13:54;101358.31;;;8.19;100.00
16016;BME280;8112;53.592;10.184;2024-02-21T07:18:56;101350.56;;;8.16;100.00
16016;BME280;8112;53.592;10.184;2024-02-21T07:23:59;101350.53;;;8.17;100.00
16016;BME280;8112;53.592;10.184;2024-02-21T07:29:03;101359.13;;;8.21;100.00
16016;BME280;8112;53.592;10.184;2024-02-21T07:34:05;101373.72;;;8.28;100.00
16016;BME280;8112;53.592;10.184;2024-02-21T07:39:07;101362.31;;;8.29;100.00
16016;BME280;8112;53.592;10.184;2024-02-21T07:44:12;101374.78;;;8.24;100.00
16016;BME280;8112;53.592;10.184;2024-02-21T07:49:14;101376.41;;;8.26;100.00
16016;BME280;8112;53.592;10.184;2024-02-21T07:54:15;101366.34;;;8.38;100.00
16016;BME280;8112;53.592;10.184;2024-02-21T07:59:19;101365.13;;;8.47;100.00
16016;BME280;8112;53.592;10.184;2024-02-21T08:04:21;101386.00;;;8.51;100.00
16016;BME280;8112;53.592;10.184;2024-02-21T08:09:23;101383.44;;;8.48;100.00
16016;BME280;8112;53.592;10.184;2024-02-21T08:14:27;101383.41;;;8.50;100.00
16016;BME280;8112;53.592;10.184;2024-02-21T08:19:28;101369.47;;;8.48;100.00
16016;BME280;8112;53.592;10.184;2024-02-21T08:24:30;101369.91;;;8.59;100.00
16016;BME280;8112;53.592;10.184;2024-02-21T08:29:34;101359.22;;;8.64;100.00
16016;BME280;8112;53.592;10.184;2024-02-21T08:34:36;101363.06;;;8.55;100.00
16016;BME280;8112;53.592;10.184;2024-02-21T08:39:38;101353.25;;;8.60;100.00
16016;BME280;8112;53.592;10.184;2024-02-21T08:44:42;101351.16;;;8.68;100.00
16016;BME280;8112;53.592;10.184;2024-02-21T08:49:44;101354.06;;;8.83;100.00
16016;BME280;8112;53.592;10.184;2024-02-21T08:54:45;101345.50;;;8.78;100.00
16016;BME280;8112;53.592;10.184;2024-02-21T08:59:52;101352.13;;;8.66;100.00
16016;BME280;8112;53.592;10.184;2024-02-21T09:04:55;101336.16;;;8.70;100.00
16016;BME280;8112;53.592;10.184;2024-02-21T09:09:58;101353.94;;;8.86;100.00
16016;BME280;8112;53.592;10.184;2024-02-21T09:15:01;101334.47;;;8.90;100.00
16016;BME280;8112;53.592;10.184;2024-02-21T09:20:03;101330.00;;;8.72;100.00
16016;BME280;8112;53.592;10.184;2024-02-21T09:25:06;101318.56;;;8.93;100.00
16016;BME280;8112;53.592;10.184;2024-02-21T09:30:10;101315.63;;;8.80;100.00
16016;BME280;8112;53.592;10.184;2024-02-21T09:35:12;101301.75;;;8.77;100.00
16016;BME280;8112;53.592;10.184;2024-02-21T09:40:15;101291.69;;;8.87;100.00
16016;BME280;8112;53.592;10.184;2024-02-21T09:45:22;101284.53;;;8.69;100.00
16016;BME280;8112;53.592;10.184;2024-02-21T09:50:24;101279.34;;;8.89;100.00
16016;BME280;8112;53.592;10.184;2024-02-21T09:55:27;101273.09;;;8.91;100.00
16016;BME280;8112;53.592;10.184;2024-02-21T10:00:35;101275.47;;;8.97;100.00
16016;BME280;8112;53.592;10.184;2024-02-21T10:05:37;101269.94;;;9.04;100.00
16016;BME280;8112;53.592;10.184;2024-02-21T10:10:43;101270.09;;;9.01;100.00
16016;BME280;8112;53.592;10.184;2024-02-21T10:16:02;101263.00;;;8.82;100.00
16016;BME280;8112;53.592;10.184;2024-02-21T10:21:06;101263.09;;;8.58;100.00
16016;BME280;8112;53.592;10.184;2024-02-21T10:26:10;101255.81;;;8.65;100.00
16016;BME280;8112;53.592;10.184;2024-02-21T10:31:23;101258.78;;;8.57;100.00
16016;BME280;8112;53.592;10.184;2024-02-21T10:36:26;101252.03;;;8.72;100.00
16016;BME280;8112;53.592;10.184;2024-02-21T10:41:29;101252.88;;;8.73;100.00
16016;BME280;8112;53.592;10.184;2024-02-21T10:46:36;101250.56;;;8.65;100.00
16016;BME280;8112;53.592;10.184;2024-02-21T10:51:43;101243.59;;;8.64;100.00
16016;BME280;8112;53.592;10.184;2024-02-21T10:56:45;101233.19;;;8.62;100.00
16016;BME280;8112;53.592;10.184;2024-02-21T11:01:51;101238.22;;;8.88;100.00
16016;BME280;8112;53.592;10.184;2024-02-21T11:06:52;101236.72;;;8.82;100.00
16016;BME280;8112;53.592;10.184;2024-02-21T11:11:55;101226.78;;;8.89;100.00
16016;BME280;8112;53.592;10.184;2024-02-21T11:17:01;101231.00;;;8.72;100.00
16016;BME280;8112;53.592;10.184;2024-02-21T11:22:14;101219.03;;;8.65;100.00
16016;BME280;8112;53.592;10.184;2024-02-21T11:27:20;101212.94;;;8.64;100.00
16016;BME280;8112;53.592;10.184;2024-02-21T11:32:25;101216.63;;;8.60;100.00
16016;BME280;8112;53.592;10.184;2024-02-21T11:37:28;101212.72;;;8.69;100.00
16016;BME280;8112;53.592;10.184;2024-02-21T11:42:33;101201.56;;;8.64;100.00
16016;BME280;8112;53.592;10.184;2024-02-21T11:47:36;101197.03;;;8.67;100.00
16016;BME280;8112;53.592;10.184;2024-02-21T11:52:39;101186.53;;;8.67;100.00
16016;BME280;8112;53.592;10.184;2024-02-21T11:57:42;101173.41;;;8.67;100.00
16016;BME280;8112;53.592;10.184;2024-02-21T12:02:47;101158.56;;;8.66;100.00
16016;BME280;8112;53.592;10.184;2024-02-21T12:07:50;101156.22;;;8.60;100.00
16016;BME280;8112;53.592;10.184;2024-02-21T12:12:53;101144.94;;;8.77;100.00
16016;BME280;8112;53.592;10.184;2024-02-21T12:18:01;101149.31;;;8.77;100.00
16016;BME280;8112;53.592;10.184;2024-02-21T12:23:03;101144.28;;;8.72;100.00
16016;BME280;8112;53.592;10.184;2024-02-21T12:28:05;101134.22;;;8.82;100.00
16016;BME280;8112;53.592;10.184;2024-02-21T12:33:09;101130.31;;;8.91;100.00
16016;BME280;8112;53.592;10.184;2024-02-21T12:38:11;101122.50;;;8.89;100.00
16016;BME280;8112;53.592;10.184;2024-02-21T12:43:14;101111.00;;;8.92;100.00
16016;BME280;8112;53.592;10.184;2024-02-21T12:48:17;101101.63;;;8.86;100.00
16016;BME280;8112;53.592;10.184;2024-02-21T12:53:19;101100.31;;;8.76;100.00
16016;BME280;8112;53.592;10.184;2024-02-21T12:58:23;101084.25;;;8.63;100.00
16016;BME280;8112;53.592;10.184;2024-02-21T13:03:27;101081.72;;;8.61;100.00
16016;BME280;8112;53.592;10.184;2024-02-21T13:08:30;101072.34;;;8.55;100.00
16016;BME280;8112;53.592;10.184;2024-02-21T13:13:35;101060.75;;;8.60;100.00
16016;BME280;8112;53.592;10.184;2024-02-21T13:18:38;101057.44;;;8.75;100.00
16016;BME280;8112;53.592;10.184;2024-02-21T13:23:43;101040.81;;;8.94;100.00
16016;BME280;8112;53.592;10.184;2024-02-21T13:28:45;101042.34;;;9.17;100.00
16016;BME280;8112;53.592;10.184;2024-02-21T13:33:49;101026.97;;;9.27;100.00
16016;BME280;8112;53.592;10.184;2024-02-21T13:38:52;101002.44;;;9.44;100.00
16016;BME280;8112;53.592;10.184;2024-02-21T13:43:54;100987.59;;;9.61;100.00
16016;BME280;8112;53.592;10.184;2024-02-21T13:49:02;100973.19;;;9.50;100.00
16016;BME280;8112;53.592;10.184;2024-02-21T13:54:06;100960.03;;;9.50;100.00
16016;BME280;8112;53.592;10.184;2024-02-21T13:59:11;100932.31;;;9.78;100.00
16016;BME280;8112;53.592;10.184;2024-02-21T14:04:15;100919.28;;;9.93;100.00
16016;BME280;8112;53.592;10.184;2024-02-21T14:09:17;100906.53;;;9.85;100.00
16016;BME280;8112;53.592;10.184;2024-02-21T14:14:19;100874.25;;;9.81;100.00
16016;BME280;8112;53.592;10.184;2024-02-21T14:19:22;100854.66;;;9.87;100.00
16016;BME280;8112;53.592;10.184;2024-02-21T14:24:24;100838.25;;;9.98;100.00
16016;BME280;8112;53.592;10.184;2024-02-21T14:29:28;100818.22;;;10.11;100.00
16016;BME280;8112;53.592;10.184;2024-02-21T14:34:33;100800.69;;;10.43;100.00
16016;BME280;8112;53.592;10.184;2024-02-21T14:39:35;100767.47;;;10.24;100.00
16016;BME280;8112;53.592;10.184;2024-02-21T14:44:37;100748.06;;;10.10;100.00
16016;BME280;8112;53.592;10.184;2024-02-21T14:49:40;100749.03;;;10.24;100.00
16016;BME280;8112;53.592;10.184;2024-02-21T14:54:42;100740.94;;;10.12;100.00
16016;BME280;8112;53.592;10.184;2024-02-21T14:59:49;100738.56;;;9.92;100.00
16016;BME280;8112;53.592;10.184;2024-02-21T15:04:59;100734.84;;;9.96;100.00
16016;BME280;8112;53.592;10.184;2024-02-21T15:10:00;100721.25;;;9.88;100.00
16016;BME280;8112;53.592;10.184;2024-02-21T15:15:04;100700.34;;;9.84;100.00
16016;BME280;8112;53.592;10.184;2024-02-21T15:20:09;100694.94;;;9.72;100.00
16016;BME280;8112;53.592;10.184;2024-02-21T15:25:11;100681.09;;;9.68;100.00
16016;BME280;8112;53.592;10.184;2024-02-21T15:30:16;100673.16;;;9.53;100.00
16016;BME280;8112;53.592;10.184;2024-02-21T15:35:21;100660.69;;;9.41;100.00
16016;BME280;8112;53.592;10.184;2024-02-21T15:40:22;100640.22;;;9.30;100.00
16016;BME280;8112;53.592;10.184;2024-02-21T15:45:24;100628.44;;;9.21;100.00
16016;BME280;8112;53.592;10.184;2024-02-21T15:50:28;100620.09;;;9.13;100.00
16016;BME280;8112;53.592;10.184;2024-02-21T15:55:30;100634.88;;;9.00;100.00
16016;BME280;8112;53.592;10.184;2024-02-21T16:00:32;100627.13;;;8.96;100.00
16016;BME280;8112;53.592;10.184;2024-02-21T16:05:36;100599.50;;;8.89;100.00
16016;BME280;8112;53.592;10.184;2024-02-21T16:10:37;100575.84;;;8.89;100.00
16016;BME280;8112;53.592;10.184;2024-02-21T16:15:39;100566.97;;;8.92;100.00
16016;BME280;8112;53.592;10.184;2024-02-21T16:20:44;100557.44;;;8.73;100.00
16016;BME280;8112;53.592;10.184;2024-02-21T16:25:47;100522.03;;;8.64;100.00
16016;BME280;8112;53.592;10.184;2024-02-21T16:30:49;100486.34;;;8.60;100.00
16016;BME280;8112;53.592;10.184;2024-02-21T16:35:52;100483.09;;;8.55;100.00
16016;BME280;8112;53.592;10.184;2024-02-21T16:40:55;100529.56;;;8.54;100.00
16016;BME280;8112;53.592;10.184;2024-02-21T16:45:57;100539.38;;;8.51;100.00
16016;BME280;8112;53.592;10.184;2024-02-21T16:51:01;100540.88;;;8.55;100.00
16016;BME280;8112;53.592;10.184;2024-02-21T16:56:05;100532.06;;;8.56;100.00
16016;BME280;8112;53.592;10.184;2024-02-21T17:01:07;100529.78;;;8.50;100.00
16016;BME280;8112;53.592;10.184;2024-02-21T17:06:12;100518.03;;;8.39;100.00
16016;BME280;8112;53.592;10.184;2024-02-21T17:11:14;100512.88;;;8.38;100.00
16016;BME280;8112;53.592;10.184;2024-02-21T17:16:16;100504.91;;;8.39;100.00
16016;BME280;8112;53.592;10.184;2024-02-21T17:21:20;100496.97;;;8.41;100.00
16016;BME280;8112;53.592;10.184;2024-02-21T17:26:21;100478.81;;;8.36;100.00
16016;BME280;8112;53.592;10.184;2024-02-21T17:31:24;100466.56;;;8.37;100.00
16016;BME280;8112;53.592;10.184;2024-02-21T17:36:29;100457.81;;;8.36;100.00
16016;BME280;8112;53.592;10.184;2024-02-21T17:41:33;100446.91;;;8.28;100.00
16016;BME280;8112;53.592;10.184;2024-02-21T17:46:40;100417.69;;;8.18;100.00
16016;BME280;8112;53.592;10.184;2024-02-21T17:51:44;100413.09;;;8.22;100.00
16016;BME280;8112;53.592;10.184;2024-02-21T17:56:46;100405.06;;;8.25;100.00
16016;BME280;8112;53.592;10.184;2024-02-21T18:01:48;100401.06;;;8.18;100.00
16016;BME280;8112;53.592;10.184;2024-02-21T18:06:51;100387.00;;;8.19;100.00
16016;BME280;8112;53.592;10.184;2024-02-21T18:11:53;100371.59;;;8.12;100.00
16016;BME280;8112;53.592;10.184;2024-02-21T18:16:55;100363.22;;;8.06;100.00
16016;BME280;8112;53.592;10.184;2024-02-21T18:21:58;100344.25;;;8.01;100.00
16016;BME280;8112;53.592;10.184;2024-02-21T18:27:00;100339.94;;;7.99;100.00
16016;BME280;8112;53.592;10.184;2024-02-21T18:32:04;100329.50;;;7.98;100.00
16016;BME280;8112;53.592;10.184;2024-02-21T18:37:09;100317.78;;;8.05;100.00
16016;BME280;8112;53.592;10.184;2024-02-21T18:42:11;100306.41;;;8.05;100.00
16016;BME280;8112;53.592;10.184;2024-02-21T18:47:13;100296.28;;;7.98;100.00
16016;BME280;8112;53.592;10.184;2024-02-21T18:52:16;100280.34;;;8.02;100.00
16016;BME280;8112;53.592;10.184;2024-02-21T18:57:19;100273.22;;;8.04;100.00
16016;BME280;8112;53.592;10.184;2024-02-21T19:02:21;100261.28;;;7.98;100.00
16016;BME280;8112;53.592;10.184;2024-02-21T19:07:25;100258.66;;;7.98;100.00
16016;BME280;8112;53.592;10.184;2024-02-21T19:12:27;100254.34;;;7.97;100.00
16016;BME280;8112;53.592;10.184;2024-02-21T19:17:28;100249.88;;;7.99;100.00
16016;BME280;8112;53.592;10.184;2024-02-21T19:22:33;100244.53;;;8.01;100.00
16016;BME280;8112;53.592;10.184;2024-02-21T19:27:34;100223.06;;;7.94;100.00
16016;BME280;8112;53.592;10.184;2024-02-21T19:32:37;100228.13;;;7.97;100.00
16016;BME280;8112;53.592;10.184;2024-02-21T19:37:41;100220.94;;;8.01;100.00
16016;BME280;8112;53.592;10.184;2024-02-21T19:42:44;100205.19;;;8.01;100.00
16016;BME280;8112;53.592;10.184;2024-02-21T19:47:46;100197.66;;;7.94;100.00
16016;BME280;8112;53.592;10.184;2024-02-21T19:52:50;100172.66;;;8.03;100.00
16016;BME280;8112;53.592;10.184;2024-02-21T19:57:53;100172.84;;;8.00;100.00
16016;BME280;8112;53.592;10.184;2024-02-21T20:02:55;100144.91;;;7.99;100.00
16016;BME280;8112;53.592;10.184;2024-02-21T20:07:59;100137.47;;;8.07;100.00
16016;BME280;8112;53.592;10.184;2024-02-21T20:13:03;100138.09;;;8.11;100.00
16016;BME280;8112;53.592;10.184;2024-02-21T20:18:06;100126.78;;;8.10;100.00
16016;BME280;8112;53.592;10.184;2024-02-21T20:23:10;100117.28;;;8.08;100.00
16016;BME280;8112;53.592;10.184;2024-02-21T20:28:15;100114.59;;;8.09;100.00
16016;BME280;8112;53.592;10.184;2024-02-21T20:33:18;100106.44;;;8.14;100.00
16016;BME280;8112;53.592;10.184;2024-02-21T20:38:23;100093.88;;;8.05;100.00
16016;BME280;8112;53.592;10.184;2024-02-21T20:43:24;100089.47;;;8.05;100.00
16016;BME280;8112;53.592;10.184;2024-02-21T20:48:26;100073.63;;;8.07;100.00
16016;BME280;8112;53.592;10.184;2024-02-21T20:53:32;100059.75;;;8.05;100.00
16016;BME280;8112;53.592;10.184;2024-02-21T20:58:34;100057.13;;;8.05;100.00
16016;BME280;8112;53.592;10.184;2024-02-21T21:03:36;100038.28;;;7.98;100.00
16016;BME280;8112;53.592;10.184;2024-02-21T21:08:40;100031.59;;;7.92;100.00
16016;BME280;8112;53.592;10.184;2024-02-21T21:13:42;100015.00;;;7.77;100.00
16016;BME280;8112;53.592;10.184;2024-02-21T21:18:44;100003.66;;;7.77;100.00
16016;BME280;8112;53.592;10.184;2024-02-21T21:23:49;99994.84;;;7.63;100.00
16016;BME280;8112;53.592;10.184;2024-02-21T21:28:51;99982.06;;;7.57;100.00
16016;BME280;8112;53.592;10.184;2024-02-21T21:33:59;99977.75;;;7.56;100.00
16016;BME280;8112;53.592;10.184;2024-02-21T21:39:02;99962.41;;;7.50;100.00
16016;BME280;8112;53.592;10.184;2024-02-21T21:44:05;99942.28;;;7.50;100.00
16016;BME280;8112;53.592;10.184;2024-02-21T21:49:07;99937.31;;;7.46;100.00
16016;BME280;8112;53.592;10.184;2024-02-21T21:54:12;99928.13;;;7.53;100.00
16016;BME280;8112;53.592;10.184;2024-02-21T21:59:16;99924.84;;;7.49;100.00
16016;BME280;8112;53.592;10.184;2024-02-21T22:04:18;99917.66;;;7.53;100.00
16016;BME280;8112;53.592;10.184;2024-02-21T22:09:22;99898.16;;;7.57;100.00
16016;BME280;8112;53.592;10.184;2024-02-21T22:14:23;99896.97;;;7.63;100.00
16016;BME280;8112;53.592;10.184;2024-02-21T22:19:25;99882.34;;;7.59;100.00
16016;BME280;8112;53.592;10.184;2024-02-21T22:24:29;99870.75;;;7.63;100.00
16016;BME280;8112;53.592;10.184;2024-02-21T22:29:31;99875.50;;;7.56;100.00
16016;BME280;8112;53.592;10.184;2024-02-21T22:34:33;99867.94;;;7.51;100.00
16016;BME280;8112;53.592;10.184;2024-02-21T22:39:36;99845.53;;;7.31;100.00
16016;BME280;8112;53.592;10.184;2024-02-21T22:44:40;99832.16;;;7.21;100.00
16016;BME280;8112;53.592;10.184;2024-02-21T22:49:43;99828.03;;;7.17;100.00
16016;BME280;8112;53.592;10.184;2024-02-21T22:54:46;99825.00;;;7.09;100.00
16016;BME280;8112;53.592;10.184;2024-02-21T22:59:48;99816.94;;;7.12;100.00
16016;BME280;8112;53.592;10.184;2024-02-21T23:04:50;99812.75;;;7.09;100.00
16016;BME280;8112;53.592;10.184;2024-02-21T23:09:54;99800.50;;;7.10;100.00
16016;BME280;8112;53.592;10.184;2024-02-21T23:14:56;99806.09;;;7.04;100.00
16016;BME280;8112;53.592;10.184;2024-02-21T23:19:59;99790.38;;;7.04;100.00
16016;BME280;8112;53.592;10.184;2024-02-21T23:25:09;99783.28;;;7.06;100.00
16016;BME280;8112;53.592;10.184;2024-02-21T23:30:11;99775.03;;;6.97;100.00
16016;BME280;8112;53.592;10.184;2024-02-21T23:35:13;99761.75;;;7.01;100.00
16016;BME280;8112;53.592;10.184;2024-02-21T23:40:17;99760.25;;;6.96;100.00
16016;BME280;8112;53.592;10.184;2024-02-21T23:45:19;99753.22;;;6.97;100.00
16016;BME280;8112;53.592;10.184;2024-02-21T23:50:22;99726.97;;;6.98;100.00
16016;BME280;8112;53.592;10.184;2024-02-21T23:55:26;99728.06;;;6.94;100.00
